sim
Sign-in with your pilot id or email,
or register
Callsign
Passwort

Schedule Details

Flight Number: OEF9149
Departure: Chicago O'Hare International Airport (KORD) at 05:20
Arrival: Munich Airport (EDDM) at 13:15

Weather Information
Getting current METAR information for KORD 250151Z 21003KT 10SM FEW055 SCT200 BKN250 22/13 A2993 RMK AO2 SLP133 T02220133
Getting current METAR information for EDDM 250220Z 23004KT 190V260 9999 -RA FEW008 SCT040 12/12 Q1002 TEMPO RA BKN008

Schedule Frequency

Route Map